Sant Feliu de Pallerols, Spain

2:42 PM CEST on August 29, 2015 (GMT +0200)
ICTSANTF2 | | Change Station
CLOSE
Current Station
Personal Weather Station
Location: Sant Feliu de Pallerols, CT
Elevation: 1601 ft
Nearby Weather Stations

Elev 1601 ft 42.08 °N, 2.51 °E | Updated 2 minutes ago

Partly Cloudy
Partly Cloudy
82.4 °F
Feels Like 83 °F
N
10.0
Wind Variable Wind from ESE
Gusts 14.0 mph

Today
High -- | Low -- °F
--% Chance of Precip.
Yesterday
High -- | Low -- °F
Precip. -- in
7:11 AM 8:29 PM
Full, 100% visible
Pressure 30.12 in
Visibility 6.2 miles
Clouds Few 2000 ft
Heat Index 83 °F
Dew Point 60 °F
Humidity 47%
Rainfall 0.00 in
Snow Depth Not available.
UV 6.2 out of 12
Pollen Not available.
Air Quality Not available.
Flu Activity Not available.
METAR LEGE 291230Z 20009KT 160V250 9999 FEW020 31/15 Q1020
Pressure 30.12 in
Visibility 6.2 miles
Clouds Few 2000 ft
Heat Index 83 °F
Dew Point 60 °F
Humidity 47%
Rainfall 0.00 in
Snow Depth Not available.
UV 6.2 out of 12
Pollen Not available.
Air Quality Not available.
Flu Activity Not available.
METAR LEGE 291230Z 20009KT 160V250 9999 FEW020 31/15 Q1020

10-Day Weather Forecast

×

Almanac

Astronomy

Aug. 29, 2015 Rise Set
Actual Time
Civil Twilight
Nautical Twilight
Astronomical Twilight
Moon
Length of Visible Light
Length of Day
Tomorrow will be .
, % of the Moon is Illuminated

Today's Extremes

Country Highs Country Lows

Community

WunderPhotos

Upload Photos

1,850,677 photos uploaded!

WunderBlogs® & News

Nearby

Air Quality

  Air Quality AQ Index Pollutant
Not available.

Snow Depth

Station Depth Elevation

Earthquake Activity

City Distance Mag. Time & Date
Minimum magnitude displayed is 2.5.

Coastal Water Temperatures

Place Temperature

Stations

Nearby Weather Stations

Station Location Temp. Windchill Dew Point Humidity Wind Precip. Elev Updated Type